sensor_id;sensor_type;location;lat;lon;timestamp;pressure;altitude;pressure_sealevel;temperature;humidity
72587;BME280;60621;49.576;11.024;2023-04-10T00:00:11;99112.88;;;6.62;64.15
72587;BME280;60621;49.576;11.024;2023-04-10T00:01:13;99115.81;;;6.52;64.06
72587;BME280;60621;49.576;11.024;2023-04-10T00:02:15;99113.19;;;6.43;64.42
72587;BME280;60621;49.576;11.024;2023-04-10T00:03:16;99118.72;;;6.33;65.51
72587;BME280;60621;49.576;11.024;2023-04-10T00:04:18;99111.03;;;6.36;65.19
72587;BME280;60621;49.576;11.024;2023-04-10T00:05:20;99107.75;;;6.39;65.21
72587;BME280;60621;49.576;11.024;2023-04-10T00:06:21;99115.34;;;6.41;65.20
72587;BME280;60621;49.576;11.024;2023-04-10T00:07:23;99115.78;;;6.43;65.53
72587;BME280;60621;49.576;11.024;2023-04-10T00:08:24;99109.16;;;6.46;65.12
72587;BME280;60621;49.576;11.024;2023-04-10T00:09:26;99113.00;;;6.39;64.61
72587;BME280;60621;49.576;11.024;2023-04-10T00:10:29;99113.50;;;6.41;65.34
72587;BME280;60621;49.576;11.024;2023-04-10T00:11:32;99115.19;;;6.37;65.17
72587;BME280;60621;49.576;11.024;2023-04-10T00:12:35;99114.84;;;6.39;65.27
72587;BME280;60621;49.576;11.024;2023-04-10T00:13:37;99117.47;;;6.39;65.45
72587;BME280;60621;49.576;11.024;2023-04-10T00:14:38;99116.72;;;6.38;65.61
72587;BME280;60621;49.576;11.024;2023-04-10T00:15:40;99117.63;;;6.34;65.00
72587;BME280;60621;49.576;11.024;2023-04-10T00:16:41;99110.06;;;6.24;65.86
72587;BME280;60621;49.576;11.024;2023-04-10T00:17:43;99113.72;;;6.14;66.23
72587;BME280;60621;49.576;11.024;2023-04-10T00:18:45;99102.34;;;6.19;66.26
72587;BME280;60621;49.576;11.024;2023-04-10T00:19:47;99112.66;;;6.15;65.94
72587;BME280;60621;49.576;11.024;2023-04-10T00:20:48;99106.47;;;6.11;66.17
72587;BME280;60621;49.576;11.024;2023-04-10T00:21:50;99109.25;;;6.14;66.43
72587;BME280;60621;49.576;11.024;2023-04-10T00:22:54;99104.63;;;6.11;66.24
72587;BME280;60621;49.576;11.024;2023-04-10T00:23:55;99100.47;;;6.10;66.45
72587;BME280;60621;49.576;11.024;2023-04-10T00:24:57;99101.56;;;6.09;66.57
72587;BME280;60621;49.576;11.024;2023-04-10T00:25:58;99098.91;;;6.01;66.51
72587;BME280;60621;49.576;11.024;2023-04-10T00:27:00;99097.53;;;6.03;66.61
72587;BME280;60621;49.576;11.024;2023-04-10T00:28:04;99098.75;;;6.06;66.54
72587;BME280;60621;49.576;11.024;2023-04-10T00:29:06;99094.00;;;6.08;66.17
72587;BME280;60621;49.576;11.024;2023-04-10T00:30:08;99094.47;;;6.10;65.99
72587;BME280;60621;49.576;11.024;2023-04-10T00:31:10;99097.22;;;6.05;66.55
72587;BME280;60621;49.576;11.024;2023-04-10T00:32:11;99096.91;;;6.06;66.62
72587;BME280;60621;49.576;11.024;2023-04-10T00:33:13;99090.44;;;6.04;66.16
72587;BME280;60621;49.576;11.024;2023-04-10T00:34:15;99087.34;;;6.02;66.77
72587;BME280;60621;49.576;11.024;2023-04-10T00:35:17;99091.81;;;6.01;66.45
72587;BME280;60621;49.576;11.024;2023-04-10T00:36:21;99089.69;;;6.03;66.54
72587;BME280;60621;49.576;11.024;2023-04-10T00:37:23;99084.44;;;6.03;66.25
72587;BME280;60621;49.576;11.024;2023-04-10T00:38:25;99086.25;;;6.03;66.61
72587;BME280;60621;49.576;11.024;2023-04-10T00:39:26;99084.59;;;5.98;66.41
72587;BME280;60621;49.576;11.024;2023-04-10T00:40:28;99083.19;;;6.01;66.98
72587;BME280;60621;49.576;11.024;2023-04-10T00:41:30;99078.41;;;5.94;66.56
72587;BME280;60621;49.576;11.024;2023-04-10T00:42:32;99074.22;;;5.93;67.06
72587;BME280;60621;49.576;11.024;2023-04-10T00:43:33;99084.41;;;5.95;67.09
72587;BME280;60621;49.576;11.024;2023-04-10T00:44:35;99077.84;;;5.83;66.58
72587;BME280;60621;49.576;11.024;2023-04-10T00:45:38;99074.19;;;5.84;67.17
72587;BME280;60621;49.576;11.024;2023-04-10T00:46:40;99074.34;;;5.88;66.49
72587;BME280;60621;49.576;11.024;2023-04-10T00:47:41;99074.97;;;5.85;66.66
72587;BME280;60621;49.576;11.024;2023-04-10T00:48:43;99079.84;;;5.78;66.65
72587;BME280;60621;49.576;11.024;2023-04-10T00:49:45;99076.16;;;5.79;66.68
72587;BME280;60621;49.576;11.024;2023-04-10T00:50:46;99075.84;;;5.72;66.70
72587;BME280;60621;49.576;11.024;2023-04-10T00:51:48;99077.41;;;5.81;66.76
72587;BME280;60621;49.576;11.024;2023-04-10T00:52:50;99075.41;;;5.87;66.60
72587;BME280;60621;49.576;11.024;2023-04-10T00:53:52;99079.56;;;5.88;66.59
72587;BME280;60621;49.576;11.024;2023-04-10T00:54:55;99078.03;;;5.87;66.65
72587;BME280;60621;49.576;11.024;2023-04-10T00:55:57;99085.13;;;5.86;66.79
72587;BME280;60621;49.576;11.024;2023-04-10T00:57:01;99082.19;;;5.88;66.35
72587;BME280;60621;49.576;11.024;2023-04-10T00:58:03;99081.91;;;5.89;65.94
72587;BME280;60621;49.576;11.024;2023-04-10T00:59:04;99089.28;;;5.87;66.19
72587;BME280;60621;49.576;11.024;2023-04-10T01:00:08;99087.16;;;5.89;65.86
72587;BME280;60621;49.576;11.024;2023-04-10T01:01:10;99083.28;;;5.87;66.14
72587;BME280;60621;49.576;11.024;2023-04-10T01:02:11;99090.94;;;5.83;66.26
72587;BME280;60621;49.576;11.024;2023-04-10T01:03:15;99087.88;;;5.81;65.93
72587;BME280;60621;49.576;11.024;2023-04-10T01:04:18;99086.34;;;5.80;66.34
72587;BME280;60621;49.576;11.024;2023-04-10T01:05:20;99086.63;;;5.79;66.55
72587;BME280;60621;49.576;11.024;2023-04-10T01:09:36;99084.91;;;5.74;66.63
72587;BME280;60621;49.576;11.024;2023-04-10T01:12:06;99075.47;;;5.64;67.40
72587;BME280;60621;49.576;11.024;2023-04-10T01:13:22;99081.16;;;5.58;67.67
72587;BME280;60621;49.576;11.024;2023-04-10T01:14:39;99080.25;;;5.62;67.33
72587;BME280;60621;49.576;11.024;2023-04-10T01:15:48;99076.75;;;5.67;67.04
72587;BME280;60621;49.576;11.024;2023-04-10T01:17:00;99076.13;;;5.70;66.53
72587;BME280;60621;49.576;11.024;2023-04-10T01:18:27;99072.13;;;5.73;66.19
72587;BME280;60621;49.576;11.024;2023-04-10T01:20:47;99077.09;;;5.43;67.03
72587;BME280;60621;49.576;11.024;2023-04-10T01:21:50;99070.72;;;5.35;66.94
72587;BME280;60621;49.576;11.024;2023-04-10T01:26:15;99065.44;;;5.27;66.91
72587;BME280;60621;49.576;11.024;2023-04-10T01:27:35;99071.75;;;5.26;67.88
72587;BME280;60621;49.576;11.024;2023-04-10T01:28:55;99069.63;;;5.28;67.90
72587;BME280;60621;49.576;11.024;2023-04-10T01:30:01;99071.47;;;5.27;67.90
72587;BME280;60621;49.576;11.024;2023-04-10T01:31:06;99077.34;;;5.33;67.93
72587;BME280;60621;49.576;11.024;2023-04-10T01:32:20;99075.38;;;5.38;67.55
72587;BME280;60621;49.576;11.024;2023-04-10T01:33:30;99069.97;;;5.35;67.62
72587;BME280;60621;49.576;11.024;2023-04-10T01:34:45;99078.75;;;5.39;67.99
72587;BME280;60621;49.576;11.024;2023-04-10T01:35:49;99082.63;;;5.42;67.91
72587;BME280;60621;49.576;11.024;2023-04-10T01:36:56;99079.41;;;5.45;67.70
72587;BME280;60621;49.576;11.024;2023-04-10T01:38:00;99085.25;;;5.42;67.28
72587;BME280;60621;49.576;11.024;2023-04-10T01:39:03;99079.41;;;5.45;67.28
72587;BME280;60621;49.576;11.024;2023-04-10T01:40:08;99080.66;;;5.47;67.63
72587;BME280;60621;49.576;11.024;2023-04-10T01:41:11;99088.50;;;5.47;67.32
72587;BME280;60621;49.576;11.024;2023-04-10T01:42:14;99085.41;;;5.45;67.41
72587;BME280;60621;49.576;11.024;2023-04-10T01:43:19;99079.22;;;5.41;67.70
72587;BME280;60621;49.576;11.024;2023-04-10T01:44:28;99086.03;;;5.42;67.64
72587;BME280;60621;49.576;11.024;2023-04-10T01:45:31;99086.16;;;5.37;67.64
72587;BME280;60621;49.576;11.024;2023-04-10T01:46:35;99080.63;;;5.38;67.93
72587;BME280;60621;49.576;11.024;2023-04-10T01:47:38;99075.06;;;5.40;68.10
72587;BME280;60621;49.576;11.024;2023-04-10T01:48:40;99080.78;;;5.42;67.86
72587;BME280;60621;49.576;11.024;2023-04-10T01:49:44;99079.06;;;5.37;67.85
72587;BME280;60621;49.576;11.024;2023-04-10T01:50:47;99081.19;;;5.35;67.66
72587;BME280;60621;49.576;11.024;2023-04-10T01:51:50;99084.56;;;5.27;68.03
72587;BME280;60621;49.576;11.024;2023-04-10T01:52:55;99085.63;;;5.26;67.51
72587;BME280;60621;49.576;11.024;2023-04-10T01:53:58;99080.38;;;5.26;67.68
72587;BME280;60621;49.576;11.024;2023-04-10T01:55:01;99085.91;;;5.25;67.74
72587;BME280;60621;49.576;11.024;2023-04-10T01:56:06;99079.47;;;5.22;67.80
72587;BME280;60621;49.576;11.024;2023-04-10T01:57:09;99080.50;;;5.21;67.47
72587;BME280;60621;49.576;11.024;2023-04-10T01:58:12;99085.09;;;5.16;67.82
72587;BME280;60621;49.576;11.024;2023-04-10T01:59:14;99084.44;;;5.10;68.20
72587;BME280;60621;49.576;11.024;2023-04-10T02:00:16;99084.88;;;5.03;68.95
72587;BME280;60621;49.576;11.024;2023-04-10T02:01:19;99087.66;;;5.07;69.19
72587;BME280;60621;49.576;11.024;2023-04-10T02:02:31;99089.50;;;5.06;68.97
72587;BME280;60621;49.576;11.024;2023-04-10T02:03:33;99086.28;;;5.09;68.54
72587;BME280;60621;49.576;11.024;2023-04-10T02:04:34;99082.03;;;5.13;68.41
72587;BME280;60621;49.576;11.024;2023-04-10T02:05:51;99080.00;;;5.10;68.44
72587;BME280;60621;49.576;11.024;2023-04-10T02:07:06;99074.75;;;5.10;68.32
72587;BME280;60621;49.576;11.024;2023-04-10T02:08:25;99091.16;;;5.02;67.97
72587;BME280;60621;49.576;11.024;2023-04-10T02:11:14;99081.56;;;4.89;68.35
72587;BME280;60621;49.576;11.024;2023-04-10T02:12:22;99079.09;;;4.93;68.57
72587;BME280;60621;49.576;11.024;2023-04-10T02:13:27;99084.75;;;4.86;68.50
72587;BME280;60621;49.576;11.024;2023-04-10T02:14:31;99081.06;;;4.87;68.86
72587;BME280;60621;49.576;11.024;2023-04-10T02:15:35;99075.25;;;4.90;68.64
72587;BME280;60621;49.576;11.024;2023-04-10T02:16:38;99083.09;;;4.90;68.55
72587;BME280;60621;49.576;11.024;2023-04-10T02:17:39;99085.72;;;4.90;68.77
72587;BME280;60621;49.576;11.024;2023-04-10T02:18:42;99080.28;;;4.86;68.41
72587;BME280;60621;49.576;11.024;2023-04-10T02:19:45;99080.72;;;4.80;69.07
72587;BME280;60621;49.576;11.024;2023-04-10T02:20:49;99078.56;;;4.82;68.90
72587;BME280;60621;49.576;11.024;2023-04-10T02:21:52;99084.75;;;4.86;68.56
72587;BME280;60621;49.576;11.024;2023-04-10T02:22:54;99081.38;;;4.85;68.07
72587;BME280;60621;49.576;11.024;2023-04-10T02:23:56;99081.06;;;4.87;68.80
72587;BME280;60621;49.576;11.024;2023-04-10T02:24:59;99072.75;;;4.85;67.81
72587;BME280;60621;49.576;11.024;2023-04-10T02:26:09;99079.84;;;4.84;68.11
72587;BME280;60621;49.576;11.024;2023-04-10T02:27:11;99080.41;;;4.81;68.01
72587;BME280;60621;49.576;11.024;2023-04-10T02:28:12;99074.09;;;4.82;68.25
72587;BME280;60621;49.576;11.024;2023-04-10T02:29:14;99080.09;;;4.83;68.16
72587;BME280;60621;49.576;11.024;2023-04-10T02:30:16;99091.00;;;4.76;68.59
72587;BME280;60621;49.576;11.024;2023-04-10T02:31:17;99084.34;;;4.70;68.59
72587;BME280;60621;49.576;11.024;2023-04-10T02:32:19;99088.00;;;4.69;68.84
72587;BME280;60621;49.576;11.024;2023-04-10T02:33:20;99084.16;;;4.67;68.43
72587;BME280;60621;49.576;11.024;2023-04-10T02:34:22;99086.75;;;4.67;68.39
72587;BME280;60621;49.576;11.024;2023-04-10T02:35:24;99086.00;;;4.66;68.08
72587;BME280;60621;49.576;11.024;2023-04-10T02:36:26;99084.19;;;4.53;68.63
72587;BME280;60621;49.576;11.024;2023-04-10T02:37:29;99092.50;;;4.55;69.12
72587;BME280;60621;49.576;11.024;2023-04-10T02:38:31;99091.72;;;4.54;67.99
72587;BME280;60621;49.576;11.024;2023-04-10T02:39:33;99094.34;;;4.54;68.41
72587;BME280;60621;49.576;11.024;2023-04-10T02:40:35;99090.88;;;4.45;68.35
72587;BME280;60621;49.576;11.024;2023-04-10T02:41:37;99093.88;;;4.52;68.71
72587;BME280;60621;49.576;11.024;2023-04-10T02:42:38;99090.94;;;4.54;67.83
72587;BME280;60621;49.576;11.024;2023-04-10T02:43:40;99093.97;;;4.47;67.94
72587;BME280;60621;49.576;11.024;2023-04-10T02:44:43;99092.91;;;4.48;68.55
72587;BME280;60621;49.576;11.024;2023-04-10T02:45:45;99097.06;;;4.49;68.08
72587;BME280;60621;49.576;11.024;2023-04-10T02:46:46;99091.06;;;4.49;68.58
72587;BME280;60621;49.576;11.024;2023-04-10T02:47:48;99087.03;;;4.43;67.87
72587;BME280;60621;49.576;11.024;2023-04-10T02:48:51;99087.28;;;4.41;68.40
72587;BME280;60621;49.576;11.024;2023-04-10T02:49:52;99090.63;;;4.33;68.20
72587;BME280;60621;49.576;11.024;2023-04-10T02:50:55;99087.25;;;4.32;69.33
72587;BME280;60621;49.576;11.024;2023-04-10T02:51:56;99088.66;;;4.39;68.59
72587;BME280;60621;49.576;11.024;2023-04-10T02:52:58;99084.22;;;4.39;68.99
72587;BME280;60621;49.576;11.024;2023-04-10T02:53:59;99076.38;;;4.39;68.33
72587;BME280;60621;49.576;11.024;2023-04-10T02:55:01;99079.00;;;4.39;68.53
72587;BME280;60621;49.576;11.024;2023-04-10T02:56:02;99087.59;;;4.40;68.41
72587;BME280;60621;49.576;11.024;2023-04-10T02:57:06;99089.25;;;4.35;68.21
72587;BME280;60621;49.576;11.024;2023-04-10T02:58:08;99089.44;;;4.39;68.86
72587;BME280;60621;49.576;11.024;2023-04-10T02:59:11;99083.81;;;4.32;67.74
72587;BME280;60621;49.576;11.024;2023-04-10T03:00:13;99084.63;;;4.32;68.93
72587;BME280;60621;49.576;11.024;2023-04-10T03:01:15;99088.97;;;4.37;68.46
72587;BME280;60621;49.576;11.024;2023-04-10T03:02:17;99086.75;;;4.30;68.31
72587;BME280;60621;49.576;11.024;2023-04-10T03:03:19;99095.34;;;4.31;68.33
72587;BME280;60621;49.576;11.024;2023-04-10T03:04:21;99087.16;;;4.24;67.88
72587;BME280;60621;49.576;11.024;2023-04-10T03:05:23;99087.63;;;4.26;68.45
72587;BME280;60621;49.576;11.024;2023-04-10T03:06:25;99087.53;;;4.17;68.58
72587;BME280;60621;49.576;11.024;2023-04-10T03:07:27;99089.75;;;4.24;68.54
72587;BME280;60621;49.576;11.024;2023-04-10T03:08:29;99088.13;;;4.28;68.37
72587;BME280;60621;49.576;11.024;2023-04-10T03:09:30;99082.91;;;4.28;67.87
72587;BME280;60621;49.576;11.024;2023-04-10T03:10:32;99081.53;;;4.17;68.69
72587;BME280;60621;49.576;11.024;2023-04-10T03:11:33;99085.53;;;4.14;68.37
72587;BME280;60621;49.576;11.024;2023-04-10T03:12:36;99085.13;;;4.07;68.71
72587;BME280;60621;49.576;11.024;2023-04-10T03:13:37;99082.63;;;4.02;68.87
72587;BME280;60621;49.576;11.024;2023-04-10T03:14:39;99080.50;;;4.04;69.05
72587;BME280;60621;49.576;11.024;2023-04-10T03:15:41;99077.28;;;4.07;69.16
72587;BME280;60621;49.576;11.024;2023-04-10T03:16:43;99081.16;;;4.09;69.06
72587;BME280;60621;49.576;11.024;2023-04-10T03:17:45;99080.78;;;4.02;69.13
72587;BME280;60621;49.576;11.024;2023-04-10T03:18:47;99085.13;;;4.07;69.39
72587;BME280;60621;49.576;11.024;2023-04-10T03:19:49;99081.53;;;4.03;68.71
72587;BME280;60621;49.576;11.024;2023-04-10T03:20:51;99078.16;;;4.02;68.90
72587;BME280;60621;49.576;11.024;2023-04-10T03:21:52;99086.78;;;4.03;68.87
72587;BME280;60621;49.576;11.024;2023-04-10T03:22:54;99083.59;;;4.06;68.05
72587;BME280;60621;49.576;11.024;2023-04-10T03:23:56;99086.88;;;4.11;68.27
72587;BME280;60621;49.576;11.024;2023-04-10T03:24:57;99082.91;;;4.00;68.28
72587;BME280;60621;49.576;11.024;2023-04-10T03:25:59;99080.88;;;3.97;68.07
72587;BME280;60621;49.576;11.024;2023-04-10T03:27:00;99081.38;;;3.85;68.41
72587;BME280;60621;49.576;11.024;2023-04-10T03:28:02;99080.00;;;3.88;68.48
72587;BME280;60621;49.576;11.024;2023-04-10T03:29:04;99083.28;;;3.94;68.63
72587;BME280;60621;49.576;11.024;2023-04-10T03:30:06;99080.59;;;3.85;68.04
72587;BME280;60621;49.576;11.024;2023-04-10T03:31:08;99082.91;;;3.87;68.47
72587;BME280;60621;49.576;11.024;2023-04-10T03:32:10;99079.63;;;3.81;67.76
72587;BME280;60621;49.576;11.024;2023-04-10T03:33:12;99084.00;;;3.85;67.42
72587;BME280;60621;49.576;11.024;2023-04-10T03:34:14;99072.78;;;3.85;67.75
72587;BME280;60621;49.576;11.024;2023-04-10T03:35:15;99079.75;;;3.90;67.79
72587;BME280;60621;49.576;11.024;2023-04-10T03:36:17;99077.03;;;3.95;67.71
72587;BME280;60621;49.576;11.024;2023-04-10T03:37:18;99074.13;;;3.96;67.74
72587;BME280;60621;49.576;11.024;2023-04-10T03:38:20;99080.09;;;3.97;67.50
72587;BME280;60621;49.576;11.024;2023-04-10T03:39:22;99079.03;;;3.98;68.20
72587;BME280;60621;49.576;11.024;2023-04-10T03:40:24;99082.16;;;4.00;68.20
72587;BME280;60621;49.576;11.024;2023-04-10T03:41:26;99079.53;;;4.00;68.54
72587;BME280;60621;49.576;11.024;2023-04-10T03:42:28;99074.59;;;3.98;68.01
72587;BME280;60621;49.576;11.024;2023-04-10T03:43:29;99070.44;;;3.97;68.37
72587;BME280;60621;49.576;11.024;2023-04-10T03:44:32;99077.19;;;3.98;68.47
72587;BME280;60621;49.576;11.024;2023-04-10T03:45:34;99071.50;;;3.96;67.63
72587;BME280;60621;49.576;11.024;2023-04-10T03:46:35;99073.66;;;3.94;67.94
72587;BME280;60621;49.576;11.024;2023-04-10T03:47:37;99071.41;;;3.88;67.79
72587;BME280;60621;49.576;11.024;2023-04-10T03:48:40;99074.03;;;3.88;67.85
72587;BME280;60621;49.576;11.024;2023-04-10T03:49:41;99075.84;;;3.87;67.16
72587;BME280;60621;49.576;11.024;2023-04-10T03:50:43;99068.91;;;3.82;67.97
72587;BME280;60621;49.576;11.024;2023-04-10T03:51:45;99063.78;;;3.77;67.66
72587;BME280;60621;49.576;11.024;2023-04-10T03:52:46;99069.09;;;3.86;68.24
72587;BME280;60621;49.576;11.024;2023-04-10T03:53:50;99072.28;;;3.83;67.74
72587;BME280;60621;49.576;11.024;2023-04-10T03:54:55;99068.13;;;3.82;67.38
72587;BME280;60621;49.576;11.024;2023-04-10T03:55:56;99067.66;;;3.80;67.48
72587;BME280;60621;49.576;11.024;2023-04-10T03:56:57;99061.28;;;3.72;67.60
72587;BME280;60621;49.576;11.024;2023-04-10T03:57:59;99058.16;;;3.70;67.74
72587;BME280;60621;49.576;11.024;2023-04-10T03:59:00;99073.03;;;3.70;67.83
72587;BME280;60621;49.576;11.024;2023-04-10T04:00:03;99064.53;;;3.64;67.78
72587;BME280;60621;49.576;11.024;2023-04-10T04:01:06;99060.41;;;3.63;68.16
72587;BME280;60621;49.576;11.024;2023-04-10T04:02:07;99065.81;;;3.67;68.01
72587;BME280;60621;49.576;11.024;2023-04-10T04:03:09;99066.88;;;3.66;67.75
72587;BME280;60621;49.576;11.024;2023-04-10T04:04:11;99070.63;;;3.59;68.27
72587;BME280;60621;49.576;11.024;2023-04-10T04:05:12;99072.25;;;3.55;68.04
72587;BME280;60621;49.576;11.024;2023-04-10T04:06:14;99066.09;;;3.65;68.43
72587;BME280;60621;49.576;11.024;2023-04-10T04:07:16;99066.28;;;3.69;68.39
72587;BME280;60621;49.576;11.024;2023-04-10T04:08:18;99073.25;;;3.73;67.94
72587;BME280;60621;49.576;11.024;2023-04-10T04:09:19;99070.16;;;3.71;68.59
72587;BME280;60621;49.576;11.024;2023-04-10T04:10:21;99071.13;;;3.75;68.63
72587;BME280;60621;49.576;11.024;2023-04-10T04:11:22;99069.78;;;3.78;68.22
72587;BME280;60621;49.576;11.024;2023-04-10T04:12:23;99065.91;;;3.75;68.43
72587;BME280;60621;49.576;11.024;2023-04-10T04:13:25;99067.72;;;3.75;68.80
72587;BME280;60621;49.576;11.024;2023-04-10T04:14:27;99064.66;;;3.73;68.72
72587;BME280;60621;49.576;11.024;2023-04-10T04:15:29;99063.38;;;3.70;68.10
72587;BME280;60621;49.576;11.024;2023-04-10T04:16:30;99064.53;;;3.64;68.54
72587;BME280;60621;49.576;11.024;2023-04-10T04:17:32;99067.91;;;3.65;69.47
72587;BME280;60621;49.576;11.024;2023-04-10T04:18:34;99070.44;;;3.70;69.40
72587;BME280;60621;49.576;11.024;2023-04-10T04:19:36;99065.13;;;3.75;69.17
72587;BME280;60621;49.576;11.024;2023-04-10T04:20:38;99060.09;;;3.78;68.54
72587;BME280;60621;49.576;11.024;2023-04-10T04:21:40;99063.56;;;3.74;68.19
72587;BME280;60621;49.576;11.024;2023-04-10T04:22:41;99063.78;;;3.77;69.13
72587;BME280;60621;49.576;11.024;2023-04-10T04:23:43;99066.78;;;3.71;68.35
72587;BME280;60621;49.576;11.024;2023-04-10T04:24:44;99071.22;;;3.70;68.67
72587;BME280;60621;49.576;11.024;2023-04-10T04:25:46;99072.47;;;3.73;68.70
72587;BME280;60621;49.576;11.024;2023-04-10T04:26:47;99080.50;;;3.76;68.98
72587;BME280;60621;49.576;11.024;2023-04-10T04:27:49;99076.06;;;3.77;68.43
72587;BME280;60621;49.576;11.024;2023-04-10T04:28:50;99071.31;;;3.79;68.74
72587;BME280;60621;49.576;11.024;2023-04-10T04:29:53;99074.69;;;3.79;68.84
72587;BME280;60621;49.576;11.024;2023-04-10T04:30:54;99078.56;;;3.82;68.71
72587;BME280;60621;49.576;11.024;2023-04-10T04:31:56;99081.66;;;3.84;68.26
72587;BME280;60621;49.576;11.024;2023-04-10T04:32:57;99075.66;;;3.83;68.34
72587;BME280;60621;49.576;11.024;2023-04-10T04:33:59;99081.94;;;3.82;68.46
72587;BME280;60621;49.576;11.024;2023-04-10T04:35:01;99082.72;;;3.69;68.84
72587;BME280;60621;49.576;11.024;2023-04-10T04:36:03;99082.63;;;3.74;69.24
72587;BME280;60621;49.576;11.024;2023-04-10T04:37:05;99082.34;;;3.76;68.93
72587;BME280;60621;49.576;11.024;2023-04-10T04:38:07;99087.75;;;3.66;68.93
72587;BME280;60621;49.576;11.024;2023-04-10T04:39:08;99083.66;;;3.59;69.04
72587;BME280;60621;49.576;11.024;2023-04-10T04:40:10;99081.34;;;3.44;69.28
72587;BME280;60621;49.576;11.024;2023-04-10T04:41:11;99084.94;;;3.48;69.28
72587;BME280;60621;49.576;11.024;2023-04-10T04:42:13;99087.44;;;3.53;69.81
72587;BME280;60621;49.576;11.024;2023-04-10T04:43:14;99086.38;;;3.54;69.62
72587;BME280;60621;49.576;11.024;2023-04-10T04:44:17;99078.06;;;3.52;69.58
72587;BME280;60621;49.576;11.024;2023-04-10T04:45:20;99083.09;;;3.63;69.73
72587;BME280;60621;49.576;11.024;2023-04-10T04:46:22;99076.03;;;3.63;69.56
72587;BME280;60621;49.576;11.024;2023-04-10T04:47:23;99076.25;;;3.67;69.97
72587;BME280;60621;49.576;11.024;2023-04-10T04:48:25;99075.19;;;3.68;69.84
72587;BME280;60621;49.576;11.024;2023-04-10T04:49:27;99080.69;;;3.66;69.48
72587;BME280;60621;49.576;11.024;2023-04-10T04:50:29;99088.78;;;3.65;69.68
72587;BME280;60621;49.576;11.024;2023-04-10T04:51:31;99082.22;;;3.53;70.53
72587;BME280;60621;49.576;11.024;2023-04-10T04:52:32;99088.41;;;3.57;70.18
72587;BME280;60621;49.576;11.024;2023-04-10T04:53:36;99087.81;;;3.60;69.63
72587;BME280;60621;49.576;11.024;2023-04-10T04:54:37;99097.13;;;3.67;69.82
72587;BME280;60621;49.576;11.024;2023-04-10T04:55:38;99097.13;;;3.67;69.52
72587;BME280;60621;49.576;11.024;2023-04-10T04:56:41;99103.13;;;3.67;70.01
72587;BME280;60621;49.576;11.024;2023-04-10T04:57:42;99102.25;;;3.72;70.01
72587;BME280;60621;49.576;11.024;2023-04-10T04:58:44;99101.19;;;3.73;70.28
72587;BME280;60621;49.576;11.024;2023-04-10T04:59:46;99108.91;;;3.78;69.00
72587;BME280;60621;49.576;11.024;2023-04-10T05:00:47;99103.91;;;3.81;69.69
72587;BME280;60621;49.576;11.024;2023-04-10T05:01:48;99101.59;;;3.80;69.87
72587;BME280;60621;49.576;11.024;2023-04-10T05:02:50;99094.69;;;3.84;69.44
72587;BME280;60621;49.576;11.024;2023-04-10T05:03:52;99104.56;;;3.87;69.40
72587;BME280;60621;49.576;11.024;2023-04-10T05:04:54;99101.19;;;3.87;69.26
72587;BME280;60621;49.576;11.024;2023-04-10T05:05:56;99105.34;;;3.88;69.19
72587;BME280;60621;49.576;11.024;2023-04-10T05:06:58;99102.94;;;3.91;69.43
72587;BME280;60621;49.576;11.024;2023-04-10T05:07:59;99112.00;;;3.94;69.31
72587;BME280;60621;49.576;11.024;2023-04-10T05:09:01;99099.56;;;3.91;69.65
72587;BME280;60621;49.576;11.024;2023-04-10T05:10:03;99102.53;;;3.98;69.78
72587;BME280;60621;49.576;11.024;2023-04-10T05:11:05;99112.88;;;4.03;69.50
72587;BME280;60621;49.576;11.024;2023-04-10T05:12:07;99115.78;;;4.01;68.96
72587;BME280;60621;49.576;11.024;2023-04-10T05:13:08;99115.69;;;4.06;69.35
72587;BME280;60621;49.576;11.024;2023-04-10T05:14:10;99116.66;;;4.10;69.30
72587;BME280;60621;49.576;11.024;2023-04-10T05:15:11;99117.13;;;4.13;68.69
72587;BME280;60621;49.576;11.024;2023-04-10T05:16:12;99119.94;;;4.16;68.64
72587;BME280;60621;49.576;11.024;2023-04-10T05:17:14;99121.00;;;4.15;68.56
72587;BME280;60621;49.576;11.024;2023-04-10T05:18:17;99124.50;;;4.10;68.41
72587;BME280;60621;49.576;11.024;2023-04-10T05:19:22;99123.41;;;4.11;69.28
72587;BME280;60621;49.576;11.024;2023-04-10T05:20:23;99117.94;;;4.13;69.02
72587;BME280;60621;49.576;11.024;2023-04-10T05:21:25;99117.03;;;4.18;68.92
72587;BME280;60621;49.576;11.024;2023-04-10T05:22:27;99124.00;;;4.22;68.91
72587;BME280;60621;49.576;11.024;2023-04-10T05:23:29;99118.69;;;4.27;69.13
72587;BME280;60621;49.576;11.024;2023-04-10T05:24:30;99121.31;;;4.27;68.80
72587;BME280;60621;49.576;11.024;2023-04-10T05:25:32;99111.63;;;4.28;68.61
72587;BME280;60621;49.576;11.024;2023-04-10T05:26:33;99112.41;;;4.28;69.09
72587;BME280;60621;49.576;11.024;2023-04-10T05:27:35;99114.81;;;4.25;68.55
72587;BME280;60621;49.576;11.024;2023-04-10T05:28:37;99106.88;;;4.16;68.88
72587;BME280;60621;49.576;11.024;2023-04-10T05:29:39;99106.41;;;4.14;68.49
72587;BME280;60621;49.576;11.024;2023-04-10T05:30:40;99106.63;;;4.04;69.65
72587;BME280;60621;49.576;11.024;2023-04-10T05:31:42;99107.28;;;3.96;69.63
72587;BME280;60621;49.576;11.024;2023-04-10T05:32:43;99103.81;;;3.87;70.08
72587;BME280;60621;49.576;11.024;2023-04-10T05:33:46;99106.78;;;3.94;69.85
72587;BME280;60621;49.576;11.024;2023-04-10T05:34:47;99110.38;;;3.98;69.49
72587;BME280;60621;49.576;11.024;2023-04-10T05:35:49;99103.03;;;4.00;69.83
72587;BME280;60621;49.576;11.024;2023-04-10T05:36:50;99099.72;;;4.08;70.33
72587;BME280;60621;49.576;11.024;2023-04-10T05:37:52;99101.97;;;4.15;70.08
72587;BME280;60621;49.576;11.024;2023-04-10T05:38:53;99100.00;;;4.20;69.66
72587;BME280;60621;49.576;11.024;2023-04-10T05:39:55;99096.63;;;4.20;69.98
72587;BME280;60621;49.576;11.024;2023-04-10T05:40:56;99100.78;;;4.21;69.82
72587;BME280;60621;49.576;11.024;2023-04-10T05:41:58;99098.06;;;4.26;70.40
72587;BME280;60621;49.576;11.024;2023-04-10T05:42:59;99097.59;;;4.38;69.72